Time;durP1;ratioP1;P1;durP2;ratioP2;P2;SDS_P1;SDS_P2;PMS_P1;PMS_P2;Temp;Humidity;BMP_temperature;BMP_pressure;BME280_temperature;BME280_humidity;BME280_pressure;Samples;Min_cycle;Max_cycle;Signal;HPM_P1;HPM_P2
2022/05/30 00:02:04;;;;;;;;;;;19.20;68.10;;;;;;5018628;28;897;-76
2022/05/30 00:04:29;;;;;;;;;;;19.20;68.10;;;;;;5035076;28;1361;-76
2022/05/30 00:06:55;;;;;;;;;;;19.20;68.10;;;;;;5036506;28;817;-75
2022/05/30 00:09:20;;;;;;;;;;;19.20;68.10;;;;;;5036453;28;984;-76
2022/05/30 00:11:45;;;;;;;;;;;19.20;68.10;;;;;;5037832;28;1902;-76
2022/05/30 00:14:11;;;;;;;;;;;19.20;68.20;;;;;;5054746;28;1224;-75
2022/05/30 00:16:36;;;;;;;;;;;19.20;68.10;;;;;;5054998;28;974;-75
2022/05/30 00:19:02;;;;;;;;;;;19.20;68.10;;;;;;5044800;28;1176;-76
2022/05/30 00:21:27;;;;;;;;;;;19.20;68.10;;;;;;5034587;28;1236;-75
2022/05/30 00:23:56;;;;;;;;;;;19.20;68.10;;;;;;5034934;28;1235;-77
2022/05/30 00:26:21;;;;;;;;;;;19.20;68.10;;;;;;5040818;28;1103;-74
2022/05/30 00:28:47;;;;;;;;;;;19.20;68.10;;;;;;5052057;28;2162;-74
2022/05/30 00:31:13;;;;;;;;;;;19.20;68.20;;;;;;5077698;28;1897;-74
2022/05/30 00:33:39;;;;;;;;;;;19.20;68.10;;;;;;5047463;28;1359;-75
2022/05/30 00:36:04;;;;;;;;;;;19.20;68.10;;;;;;5077062;28;1341;-74
2022/05/30 00:38:30;;;;;;;;;;;19.20;68.10;;;;;;5051044;28;1889;-75
2022/05/30 00:40:56;;;;;;;;;;;19.20;68.10;;;;;;5049383;28;1092;-77
2022/05/30 00:43:24;;;;;;;;;;;19.20;68.10;;;;;;5050325;28;1417;-76
2022/05/30 00:45:50;;;;;;;;;;;19.20;68.20;;;;;;5067279;28;2129;-75
2022/05/30 00:48:15;;;;;;;;;;;19.20;68.10;;;;;;5067650;28;1225;-76
2022/05/30 00:50:41;;;;;;;;;;;19.20;68.10;;;;;;5037354;28;1905;-76
2022/05/30 00:53:06;;;;;;;;;;;19.20;68.90;;;;;;5039062;28;1086;-75
2022/05/30 00:55:32;;;;;;;;;;;19.20;68.10;;;;;;5033407;28;1331;-76
2022/05/30 00:57:57;;;;;;;;;;;19.20;68.10;;;;;;5039328;28;813;-76
2022/05/30 01:00:25;;;;;;;;;;;19.20;68.10;;;;;;5067107;28;1105;-76
2022/05/30 01:08:18;;;;;;;;;;;19.20;68.10;;;;;;5035264;28;699;-76
2022/05/30 01:10:44;;;;;;;;;;;19.20;68.20;;;;;;5034974;28;1910;-76
2022/05/30 01:13:10;;;;;;;;;;;19.20;68.20;;;;;;5047757;28;1154;-76
2022/05/30 01:15:36;;;;;;;;;;;19.20;68.20;;;;;;5054383;28;1206;-76
2022/05/30 01:18:01;;;;;;;;;;;19.20;68.10;;;;;;5053917;28;1106;-76
2022/05/30 01:20:39;;;;;;;;;;;19.20;68.10;;;;;;5054855;28;979;-76
2022/05/30 01:23:11;;;;;;;;;;;19.20;68.10;;;;;;5070482;28;1186;-75
2022/05/30 01:25:55;;;;;;;;;;;19.20;68.10;;;;;;5070826;28;1237;-76
2022/05/30 01:28:39;;;;;;;;;;;19.20;68.10;;;;;;5035171;28;1051;-75
2022/05/30 01:31:05;;;;;;;;;;;19.20;68.10;;;;;;5053137;28;1906;-75
2022/05/30 01:33:32;;;;;;;;;;;19.20;68.10;;;;;;5034889;28;1208;-76
2022/05/30 01:35:57;;;;;;;;;;;19.20;68.10;;;;;;5034982;28;893;-75
2022/05/30 01:38:24;;;;;;;;;;;19.20;68.10;;;;;;5033609;28;1067;-73
2022/05/30 01:40:50;;;;;;;;;;;19.20;68.10;;;;;;5033256;28;1175;-73
2022/05/30 01:43:18;;;;;;;;;;;19.20;68.10;;;;;;5034663;28;1189;-74
2022/05/30 01:45:43;;;;;;;;;;;19.20;68.10;;;;;;5016856;28;1165;-74
2022/05/30 01:48:09;;;;;;;;;;;19.20;68.20;;;;;;5033489;28;908;-74
2022/05/30 01:50:34;;;;;;;;;;;19.20;68.20;;;;;;5033126;28;1914;-74
2022/05/30 01:53:00;;;;;;;;;;;19.20;68.10;;;;;;5033590;28;1192;-72
2022/05/30 01:55:25;;;;;;;;;;;19.20;68.10;;;;;;5034420;28;1233;-72
2022/05/30 01:57:51;;;;;;;;;;;19.20;68.10;;;;;;5033247;28;987;-74
2022/05/30 02:00:17;;;;;;;;;;;19.20;68.10;;;;;;5033998;28;875;-72
2022/05/30 02:02:42;;;;;;;;;;;19.20;68.10;;;;;;5034292;28;829;-75
2022/05/30 02:05:08;;;;;;;;;;;19.20;68.10;;;;;;5053991;22;3458;-72
2022/05/30 02:07:33;;;;;;;;;;;19.20;68.20;;;;;;5014113;28;852;-72
2022/05/30 02:09:59;;;;;;;;;;;19.20;68.10;;;;;;5014232;28;763;-71
2022/05/30 02:12:24;;;;;;;;;;;19.20;68.10;;;;;;5014304;28;1906;-71
2022/05/30 02:14:49;;;;;;;;;;;19.20;68.10;;;;;;5029398;28;1229;-71
2022/05/30 02:17:15;;;;;;;;;;;19.20;68.10;;;;;;5014568;28;1045;-72
2022/05/30 02:19:41;;;;;;;;;;;19.20;68.10;;;;;;5009687;28;1156;-71
2022/05/30 02:22:06;;;;;;;;;;;19.20;68.10;;;;;;4994487;28;825;-72
2022/05/30 02:24:32;;;;;;;;;;;19.20;68.10;;;;;;5009612;28;1314;-72
2022/05/30 02:26:58;;;;;;;;;;;19.20;68.10;;;;;;5016476;28;1111;-72
2022/05/30 02:29:23;;;;;;;;;;;19.20;68.10;;;;;;5033630;28;816;-72
2022/05/30 02:31:49;;;;;;;;;;;19.20;68.20;;;;;;5033530;28;1894;-72
2022/05/30 02:36:58;;;;;;;;;;;19.20;68.10;;;;;;5034218;28;690;-71
2022/05/30 02:39:24;;;;;;;;;;;19.20;68.20;;;;;;5032411;28;852;-73
2022/05/30 02:41:50;;;;;;;;;;;19.20;68.20;;;;;;5048554;28;1201;-73
2022/05/30 02:44:19;;;;;;;;;;;19.20;68.10;;;;;;5032413;28;1200;-72
2022/05/30 02:46:51;;;;;;;;;;;19.20;68.90;;;;;;5032342;28;824;-72
2022/05/30 02:49:17;;;;;;;;;;;19.20;68.20;;;;;;5033512;28;1252;-72
2022/05/30 02:51:42;;;;;;;;;;;19.20;68.20;;;;;;5031914;28;1902;-72
2022/05/30 02:54:08;;;;;;;;;;;19.20;68.20;;;;;;5032172;28;1275;-73
2022/05/30 02:56:33;;;;;;;;;;;19.20;68.20;;;;;;5032021;28;927;-73
2022/05/30 02:58:59;;;;;;;;;;;19.20;68.20;;;;;;5033347;28;964;-73
2022/05/30 03:01:24;;;;;;;;;;;19.20;68.20;;;;;;5031924;28;1039;-72
2022/05/30 03:03:50;;;;;;;;;;;19.20;68.20;;;;;;5033410;28;848;-72
2022/05/30 03:06:16;;;;;;;;;;;19.20;68.20;;;;;;5032055;28;1299;-72
2022/05/30 03:08:41;;;;;;;;;;;19.20;68.20;;;;;;5033200;28;868;-71
2022/05/30 03:11:06;;;;;;;;;;;19.20;68.20;;;;;;5032922;28;1957;-73
2022/05/30 03:13:32;;;;;;;;;;;19.20;68.20;;;;;;5016638;28;1222;-72
2022/05/30 03:15:58;;;;;;;;;;;19.20;68.20;;;;;;5013422;28;1186;-73
2022/05/30 03:18:24;;;;;;;;;;;19.20;68.20;;;;;;5018538;28;1108;-73
2022/05/30 03:20:49;;;;;;;;;;;19.20;68.20;;;;;;5032977;28;1030;-73
2022/05/30 03:23:14;;;;;;;;;;;19.20;68.20;;;;;;5033013;28;896;-73
2022/05/30 03:25:40;;;;;;;;;;;19.20;68.20;;;;;;5032372;28;1188;-73
2022/05/30 03:28:05;;;;;;;;;;;19.20;68.20;;;;;;5012005;28;1084;-73
2022/05/30 03:30:36;;;;;;;;;;;19.20;68.20;;;;;;5013393;28;844;-72
2022/05/30 03:33:02;;;;;;;;;;;19.20;68.20;;;;;;5013622;28;864;-72
2022/05/30 03:35:27;;;;;;;;;;;19.20;68.20;;;;;;5013184;28;1193;-73
2022/05/30 03:37:52;;;;;;;;;;;19.20;68.30;;;;;;5013107;28;936;-73
2022/05/30 03:40:18;;;;;;;;;;;19.20;68.20;;;;;;5011518;28;1023;-74
2022/05/30 03:42:43;;;;;;;;;;;19.20;68.20;;;;;;5012185;28;856;-73
2022/05/30 03:45:09;;;;;;;;;;;19.20;68.20;;;;;;5011875;28;1208;-72
2022/05/30 03:47:38;;;;;;;;;;;19.20;68.20;;;;;;5013105;28;1110;-71
2022/05/30 03:50:04;;;;;;;;;;;19.20;68.20;;;;;;5013123;28;1034;-72
2022/05/30 03:52:29;;;;;;;;;;;19.20;68.20;;;;;;5010983;28;2224;-73
2022/05/30 03:54:55;;;;;;;;;;;19.20;68.20;;;;;;5010872;28;1895;-73
2022/05/30 03:57:20;;;;;;;;;;;19.20;68.20;;;;;;5011546;28;1176;-73
2022/05/30 03:59:46;;;;;;;;;;;19.20;68.10;;;;;;5012759;28;1107;-74
2022/05/30 04:02:12;;;;;;;;;;;19.20;68.10;;;;;;5011690;28;1331;-73
2022/05/30 04:04:37;;;;;;;;;;;19.30;68.20;;;;;;5015360;28;1311;-72
2022/05/30 04:07:02;;;;;;;;;;;19.30;68.20;;;;;;5032588;28;919;-72
2022/05/30 04:09:28;;;;;;;;;;;19.40;68.10;;;;;;5032341;28;1067;-72
2022/05/30 04:11:53;;;;;;;;;;;19.50;68.00;;;;;;5014651;28;1910;-72
2022/05/30 04:14:19;;;;;;;;;;;19.50;67.70;;;;;;5032545;28;1222;-72
2022/05/30 04:16:44;;;;;;;;;;;19.60;67.40;;;;;;5014818;28;720;-72
2022/05/30 04:19:10;;;;;;;;;;;19.70;67.10;;;;;;5044788;28;1170;-72
2022/05/30 04:21:35;;;;;;;;;;;19.80;66.80;;;;;;5052047;28;803;-72
2022/05/30 04:24:00;;;;;;;;;;;19.90;66.40;;;;;;5034424;28;809;-71
2022/05/30 04:26:26;;;;;;;;;;;20.00;66.20;;;;;;5045655;28;1294;-70
2022/05/30 04:28:51;;;;;;;;;;;20.10;65.90;;;;;;5032395;28;908;-71
2022/05/30 04:31:17;;;;;;;;;;;20.20;65.60;;;;;;5035307;28;2240;-71
2022/05/30 04:33:42;;;;;;;;;;;20.30;65.30;;;;;;5036118;28;967;-73
2022/05/30 04:36:09;;;;;;;;;;;20.40;65.10;;;;;;5035978;28;1184;-74
2022/05/30 04:38:34;;;;;;;;;;;20.50;64.80;;;;;;5035735;28;891;-73
2022/05/30 04:41:00;;;;;;;;;;;20.50;64.50;;;;;;5032171;28;1725;-70
2022/05/30 04:43:25;;;;;;;;;;;20.60;64.40;;;;;;5001497;28;1228;-70
2022/05/30 04:46:07;;;;;;;;;;;20.70;64.20;;;;;;5018013;28;1209;-70
2022/05/30 04:48:32;;;;;;;;;;;20.80;64.00;;;;;;5018155;28;856;-72
2022/05/30 04:50:58;;;;;;;;;;;20.80;63.80;;;;;;5001338;28;1890;-73
2022/05/30 04:53:23;;;;;;;;;;;20.90;63.60;;;;;;5035620;28;1066;-74
2022/05/30 04:55:49;;;;;;;;;;;20.90;64.10;;;;;;5017844;28;1287;-73
2022/05/30 04:58:14;;;;;;;;;;;21.00;63.30;;;;;;5035531;28;1051;-73
2022/05/30 05:00:39;;;;;;;;;;;21.00;63.10;;;;;;5035132;28;908;-76
2022/05/30 05:03:05;;;;;;;;;;;21.10;63.00;;;;;;5017975;28;1019;-76
2022/05/30 05:05:30;;;;;;;;;;;21.10;62.80;;;;;;5035423;28;1190;-75
2022/05/30 05:08:00;;;;;;;;;;;21.10;62.70;;;;;;5035482;28;734;-71
2022/05/30 05:10:31;;;;;;;;;;;21.20;62.60;;;;;;5017505;28;880;-73
2022/05/30 05:12:57;;;;;;;;;;;21.30;62.50;;;;;;5023650;28;1902;-73
2022/05/30 05:15:22;;;;;;;;;;;21.30;62.40;;;;;;4998295;28;1223;-74
2022/05/30 05:17:48;;;;;;;;;;;21.30;62.30;;;;;;5017706;28;1234;-73
2022/05/30 05:20:14;;;;;;;;;;;21.30;62.20;;;;;;5055007;28;908;-72
2022/05/30 05:22:39;;;;;;;;;;;21.40;62.10;;;;;;5055218;28;852;-73
2022/05/30 05:25:05;;;;;;;;;;;21.40;62.00;;;;;;5037275;28;1205;-72
2022/05/30 05:27:30;;;;;;;;;;;21.40;61.90;;;;;;5039554;28;1135;-69
2022/05/30 05:29:56;;;;;;;;;;;21.50;61.80;;;;;;5034653;28;840;-72
2022/05/30 05:32:21;;;;;;;;;;;21.50;61.70;;;;;;5034921;28;1908;-72
2022/05/30 05:34:50;;;;;;;;;;;21.60;61.60;;;;;;5017210;28;1612;-72
2022/05/30 05:37:18;;;;;;;;;;;21.60;61.60;;;;;;5035026;28;876;-71
2022/05/30 05:39:44;;;;;;;;;;;21.60;61.40;;;;;;5017152;28;912;-69
2022/05/30 05:42:09;;;;;;;;;;;21.70;61.40;;;;;;5033912;28;782;-69
2022/05/30 05:44:35;;;;;;;;;;;21.70;61.20;;;;;;5034697;28;1327;-72
2022/05/30 05:47:00;;;;;;;;;;;21.70;61.10;;;;;;5034619;28;684;-72
2022/05/30 05:49:25;;;;;;;;;;;21.80;61.00;;;;;;5034697;28;645;-72
2022/05/30 05:51:57;;;;;;;;;;;21.80;60.90;;;;;;5034437;28;1898;-72
2022/05/30 05:54:23;;;;;;;;;;;21.80;60.80;;;;;;5017310;28;1322;-72
2022/05/30 05:56:48;;;;;;;;;;;21.90;60.80;;;;;;5016836;28;848;-72
2022/05/30 05:59:14;;;;;;;;;;;22.00;60.80;;;;;;5034355;28;1062;-72
2022/05/30 06:01:39;;;;;;;;;;;22.00;60.60;;;;;;5016353;28;1397;-72
2022/05/30 06:04:05;;;;;;;;;;;22.00;60.50;;;;;;5016480;28;1182;-72
2022/05/30 06:06:31;;;;;;;;;;;22.10;60.50;;;;;;5034094;28;952;-72
2022/05/30 06:08:56;;;;;;;;;;;22.10;60.30;;;;;;5034246;28;904;-72
2022/05/30 06:11:22;;;;;;;;;;;22.10;60.30;;;;;;5033906;28;1898;-72
2022/05/30 06:13:48;;;;;;;;;;;22.10;60.20;;;;;;5034134;28;1195;-72
2022/05/30 06:16:14;;;;;;;;;;;22.10;60.20;;;;;;5034170;28;1292;-73
2022/05/30 06:18:39;;;;;;;;;;;22.10;60.10;;;;;;5033810;28;1104;-72
2022/05/30 06:21:05;;;;;;;;;;;22.10;60.20;;;;;;5016144;28;821;-69
2022/05/30 06:23:30;;;;;;;;;;;22.10;60.10;;;;;;5016170;28;1382;-71
2022/05/30 06:25:56;;;;;;;;;;;22.20;60.10;;;;;;5036345;28;1721;-70
2022/05/30 06:28:22;;;;;;;;;;;22.20;60.20;;;;;;5054059;28;792;-72
2022/05/30 06:30:47;;;;;;;;;;;22.20;60.10;;;;;;5053431;28;1959;-72
2022/05/30 06:33:12;;;;;;;;;;;22.20;60.10;;;;;;5053472;28;725;-72
2022/05/30 06:35:41;;;;;;;;;;;22.20;60.10;;;;;;5053516;28;1191;-72
2022/05/30 06:38:09;;;;;;;;;;;22.20;60.10;;;;;;5035926;28;810;-73
2022/05/30 06:40:34;;;;;;;;;;;22.20;60.10;;;;;;5053331;28;915;-74
2022/05/30 06:42:59;;;;;;;;;;;22.20;60.10;;;;;;5035696;28;928;-75
2022/05/30 06:45:25;;;;;;;;;;;22.20;60.20;;;;;;5053508;28;1187;-75
2022/05/30 06:47:51;;;;;;;;;;;22.20;60.30;;;;;;5035572;28;849;-75
2022/05/30 06:50:17;;;;;;;;;;;22.20;60.30;;;;;;5035597;28;696;-75
2022/05/30 06:52:42;;;;;;;;;;;22.10;60.40;;;;;;5052824;28;1943;-75
2022/05/30 06:55:08;;;;;;;;;;;22.10;60.60;;;;;;5047803;28;1318;-75
2022/05/30 07:00:18;;;;;;;;;;;22.10;60.80;;;;;;5031943;28;620;-75
2022/05/30 07:02:44;;;;;;;;;;;22.00;60.80;;;;;;5031544;28;2151;-75
2022/05/30 07:05:09;;;;;;;;;;;22.00;60.90;;;;;;5033041;28;1780;-75
2022/05/30 07:07:35;;;;;;;;;;;22.00;61.00;;;;;;5033039;28;2031;-75
2022/05/30 07:10:00;;;;;;;;;;;22.00;61.20;;;;;;5032340;28;2193;-75
2022/05/30 07:12:25;;;;;;;;;;;21.90;61.20;;;;;;5033097;28;1969;-75
2022/05/30 07:14:51;;;;;;;;;;;21.90;61.30;;;;;;5032749;28;1352;-76
2022/05/30 07:17:16;;;;;;;;;;;21.90;61.50;;;;;;5033082;28;1094;-76
2022/05/30 07:19:42;;;;;;;;;;;21.80;61.40;;;;;;5033366;28;1174;-76
2022/05/30 07:22:08;;;;;;;;;;;21.80;61.50;;;;;;5033012;28;1099;-73
2022/05/30 07:24:34;;;;;;;;;;;21.80;61.60;;;;;;5032709;28;1361;-74
2022/05/30 07:26:59;;;;;;;;;;;21.70;61.70;;;;;;5044209;28;1099;-74
2022/05/30 07:29:26;;;;;;;;;;;21.70;61.70;;;;;;5034640;28;936;-74
2022/05/30 07:31:56;;;;;;;;;;;21.70;61.80;;;;;;5052576;28;1961;-75
2022/05/30 07:34:21;;;;;;;;;;;21.70;61.90;;;;;;5052826;28;1361;-75
2022/05/30 07:36:46;;;;;;;;;;;21.70;62.10;;;;;;5052925;28;903;-75
2022/05/30 07:39:12;;;;;;;;;;;21.60;62.10;;;;;;5052946;28;865;-74
2022/05/30 07:41:37;;;;;;;;;;;21.60;62.20;;;;;;5053211;28;829;-74
2022/05/30 07:44:03;;;;;;;;;;;21.60;62.30;;;;;;5053199;28;867;-73
2022/05/30 07:46:28;;;;;;;;;;;21.60;62.50;;;;;;5035127;28;1302;-74
2022/05/30 07:48:54;;;;;;;;;;;21.50;62.40;;;;;;5052521;28;832;-73
2022/05/30 07:51:19;;;;;;;;;;;21.50;62.50;;;;;;5034751;28;2205;-72
2022/05/30 07:53:45;;;;;;;;;;;21.50;62.60;;;;;;5030409;28;1191;-73
2022/05/30 07:56:12;;;;;;;;;;;21.50;62.70;;;;;;5015174;28;1257;-73
2022/05/30 07:58:37;;;;;;;;;;;21.40;62.70;;;;;;5014582;28;1345;-74
2022/05/30 08:01:03;;;;;;;;;;;21.40;62.80;;;;;;5012658;28;1835;-73
2022/05/30 08:03:28;;;;;;;;;;;21.40;62.90;;;;;;4998349;28;1468;-74
2022/05/30 08:06:07;;;;;;;;;;;21.30;62.90;;;;;;5057442;22;3619;-74
2022/05/30 08:08:32;;;;;;;;;;;21.30;63.00;;;;;;5029579;28;824;-75
2022/05/30 08:10:58;;;;;;;;;;;21.30;63.20;;;;;;5029152;28;1985;-73
2022/05/30 08:13:23;;;;;;;;;;;21.30;63.20;;;;;;5031717;28;1275;-73
2022/05/30 08:15:49;;;;;;;;;;;21.30;63.30;;;;;;5032453;28;2259;-73
2022/05/30 08:18:15;;;;;;;;;;;21.20;63.30;;;;;;5001987;28;1344;-73
2022/05/30 08:20:40;;;;;;;;;;;21.20;63.40;;;;;;5026766;28;1219;-72
2022/05/30 08:23:06;;;;;;;;;;;21.20;63.50;;;;;;5036305;28;829;-74
2022/05/30 08:25:31;;;;;;;;;;;21.10;63.60;;;;;;5035028;28;1193;-72
2022/05/30 08:27:56;;;;;;;;;;;21.10;63.60;;;;;;5017385;28;1167;-72
2022/05/30 08:30:22;;;;;;;;;;;21.10;63.70;;;;;;5021176;28;2145;-73
2022/05/30 08:32:48;;;;;;;;;;;21.10;63.80;;;;;;5002883;28;1911;-73
2022/05/30 08:35:14;;;;;;;;;;;21.10;63.90;;;;;;5024468;28;1382;-73
2022/05/30 08:37:40;;;;;;;;;;;21.00;63.90;;;;;;5027716;28;1317;-73
2022/05/30 08:42:54;;;;;;;;;;;21.00;64.10;;;;;;5030843;28;738;-74
2022/05/30 08:45:21;;;;;;;;;;;21.00;64.20;;;;;;5022962;28;1300;-73
2022/05/30 08:47:51;;;;;;;;;;;20.90;64.20;;;;;;5014862;28;861;-73
2022/05/30 08:50:35;;;;;;;;;;;20.90;64.30;;;;;;5014617;28;900;-72
2022/05/30 08:53:21;;;;;;;;;;;20.90;64.30;;;;;;5014732;28;1902;-73
2022/05/30 08:55:47;;;;;;;;;;;20.90;64.40;;;;;;5007166;28;2303;-73
2022/05/30 08:58:26;;;;;;;;;;;20.80;64.50;;;;;;5022605;28;1143;-74
2022/05/30 09:00:56;;;;;;;;;;;20.80;64.50;;;;;;5022036;28;1043;-72
2022/05/30 09:03:36;;;;;;;;;;;20.80;64.60;;;;;;5031599;28;1195;-73
2022/05/30 09:06:16;;;;;;;;;;;20.80;64.70;;;;;;5027723;28;1299;-73
2022/05/30 09:08:43;;;;;;;;;;;20.80;64.80;;;;;;5010184;28;1135;-72
2022/05/30 09:11:32;;;;;;;;;;;20.80;64.90;;;;;;5034031;28;1906;-73
2022/05/30 09:13:58;;;;;;;;;;;20.70;64.80;;;;;;4993037;28;1008;-72
2022/05/30 09:16:30;;;;;;;;;;;20.70;64.90;;;;;;5009941;28;1339;-73
2022/05/30 09:18:56;;;;;;;;;;;20.70;65.00;;;;;;5021195;28;1129;-73
2022/05/30 09:21:22;;;;;;;;;;;20.70;65.10;;;;;;5030407;28;1026;-72
2022/05/30 09:23:47;;;;;;;;;;;20.70;65.10;;;;;;5030669;28;1027;-73
2022/05/30 09:26:17;;;;;;;;;;;20.70;65.10;;;;;;5013827;28;1660;-73
2022/05/30 09:28:43;;;;;;;;;;;20.70;65.20;;;;;;4997587;28;1249;-72
2022/05/30 09:31:20;;;;;;;;;;;20.70;65.20;;;;;;4997254;28;1971;-72
2022/05/30 09:33:56;;;;;;;;;;;20.60;65.20;;;;;;5015175;28;797;-72
2022/05/30 09:36:22;;;;;;;;;;;20.60;65.30;;;;;;5013800;28;1203;-72
2022/05/30 09:38:54;;;;;;;;;;;20.60;65.40;;;;;;5013959;28;892;-73
2022/05/30 09:41:40;;;;;;;;;;;20.60;65.40;;;;;;5013636;28;1035;-72
2022/05/30 09:44:11;;;;;;;;;;;20.60;65.50;;;;;;5010917;28;1119;-72
2022/05/30 09:46:43;;;;;;;;;;;20.60;65.60;;;;;;5014835;28;1232;-73
2022/05/30 09:49:16;;;;;;;;;;;20.50;65.50;;;;;;5013683;28;1034;-74
2022/05/30 09:51:43;;;;;;;;;;;20.50;65.60;;;;;;5014563;28;1903;-72
2022/05/30 09:54:09;;;;;;;;;;;20.50;65.60;;;;;;5013563;28;794;-73
2022/05/30 09:56:37;;;;;;;;;;;20.50;65.70;;;;;;5014678;28;1268;-72
2022/05/30 09:59:02;;;;;;;;;;;20.50;65.70;;;;;;5013435;28;800;-73
2022/05/30 10:01:28;;;;;;;;;;;20.50;65.70;;;;;;5001398;28;2219;-73
2022/05/30 10:03:59;;;;;;;;;;;20.50;65.70;;;;;;4993696;28;799;-73
2022/05/30 10:06:26;;;;;;;;;;;20.40;65.70;;;;;;4994726;28;1217;-72
2022/05/30 10:09:01;;;;;;;;;;;20.50;65.80;;;;;;5011635;28;879;-73
2022/05/30 10:11:32;;;;;;;;;;;20.50;65.90;;;;;;5012704;28;1907;-72
2022/05/30 10:13:58;;;;;;;;;;;20.50;65.90;;;;;;5032384;28;868;-72
2022/05/30 10:16:33;;;;;;;;;;;20.40;65.80;;;;;;5032603;28;1736;-73
2022/05/30 10:19:00;;;;;;;;;;;20.40;65.90;;;;;;5023231;28;1150;-73
2022/05/30 10:28:14;;;;;;;;;;;20.40;65.90;;;;;;5013120;28;1010;-72
2022/05/30 10:30:41;;;;;;;;;;;20.30;61.70;;;;;;5027162;28;2158;-72
2022/05/30 10:33:09;;;;;;;;;;;20.30;60.50;;;;;;5025375;28;1969;-72
2022/05/30 10:35:53;;;;;;;;;;;20.30;60.10;;;;;;5031270;28;1394;-71
2022/05/30 10:38:18;;;;;;;;;;;20.20;59.50;;;;;;5033187;28;892;-71
2022/05/30 10:40:57;;;;;;;;;;;20.20;59.40;;;;;;5031753;28;1193;-71
2022/05/30 10:43:27;;;;;;;;;;;20.20;58.80;;;;;;5033464;28;861;-72
2022/05/30 10:45:58;;;;;;;;;;;20.10;58.40;;;;;;5032045;28;1271;-71
2022/05/30 10:48:33;;;;;;;;;;;20.10;58.00;;;;;;5031915;28;790;-71
2022/05/30 10:51:03;;;;;;;;;;;20.10;57.40;;;;;;5031709;28;1898;-71
2022/05/30 10:53:34;;;;;;;;;;;20.10;57.20;;;;;;5032843;28;1050;-71
2022/05/30 10:56:12;;;;;;;;;;;20.00;57.60;;;;;;5033119;28;1276;-71
2022/05/30 10:58:46;;;;;;;;;;;20.00;57.00;;;;;;5031828;28;1327;-71
2022/05/30 11:01:15;;;;;;;;;;;20.00;57.00;;;;;;5031796;28;716;-71
2022/05/30 11:03:45;;;;;;;;;;;20.00;57.20;;;;;;5031750;28;1039;-71
2022/05/30 11:06:14;;;;;;;;;;;20.00;56.90;;;;;;5031350;28;1311;-71
2022/05/30 11:08:43;;;;;;;;;;;20.00;57.10;;;;;;5031429;28;1250;-71
2022/05/30 11:11:18;;;;;;;;;;;19.90;56.60;;;;;;5031206;28;1923;-70
2022/05/30 11:13:46;;;;;;;;;;;19.90;57.10;;;;;;5031505;28;1179;-71
2022/05/30 11:16:21;;;;;;;;;;;19.90;56.80;;;;;;5031477;28;1323;-71
2022/05/30 11:19:05;;;;;;;;;;;19.90;56.30;;;;;;5023809;28;1107;-70
2022/05/30 11:21:30;;;;;;;;;;;19.90;56.30;;;;;;5012799;28;1012;-70
2022/05/30 11:23:56;;;;;;;;;;;19.90;56.00;;;;;;5011542;28;1184;-70
2022/05/30 11:26:40;;;;;;;;;;;19.90;55.60;;;;;;5011495;28;1241;-70
2022/05/30 11:29:22;;;;;;;;;;;19.90;54.20;;;;;;5012483;28;1051;-70
2022/05/30 11:32:07;;;;;;;;;;;19.90;54.30;;;;;;5011206;28;1961;-70
2022/05/30 11:34:48;;;;;;;;;;;19.90;53.40;;;;;;4982039;28;1365;-70
2022/05/30 11:37:22;;;;;;;;;;;19.80;51.50;;;;;;5027823;28;817;-70
2022/05/30 11:39:51;;;;;;;;;;;19.80;50.90;;;;;;5030532;28;1054;-70
2022/05/30 11:42:35;;;;;;;;;;;19.80;50.90;;;;;;5019395;28;837;-71
2022/05/30 11:45:09;;;;;;;;;;;19.80;50.60;;;;;;5019346;28;1181;-71
2022/05/30 11:47:41;;;;;;;;;;;19.80;51.30;;;;;;5019579;28;1066;-71
2022/05/30 11:50:11;;;;;;;;;;;19.80;51.90;;;;;;5019258;28;1011;-71
2022/05/30 11:52:55;;;;;;;;;;;19.80;52.60;;;;;;5040178;28;2247;-71
2022/05/30 11:55:24;;;;;;;;;;;19.70;53.00;;;;;;5025426;28;1253;-70
2022/05/30 11:57:50;;;;;;;;;;;19.80;53.70;;;;;;5038054;28;1018;-70
2022/05/30 12:00:23;;;;;;;;;;;19.80;54.10;;;;;;5037455;28;1074;-70
2022/05/30 12:02:52;;;;;;;;;;;19.80;54.40;;;;;;5039301;28;778;-70
2022/05/30 12:05:23;;;;;;;;;;;19.80;54.80;;;;;;5039078;28;1261;-72
2022/05/30 12:07:53;;;;;;;;;;;19.80;55.10;;;;;;5039208;28;1026;-73
2022/05/30 12:10:18;;;;;;;;;;;19.80;55.40;;;;;;5037976;28;911;-72
2022/05/30 12:12:56;;;;;;;;;;;19.80;55.60;;;;;;5038852;28;1961;-73
2022/05/30 12:15:27;;;;;;;;;;;19.80;55.80;;;;;;5038135;28;1197;-73
2022/05/30 12:24:03;;;;;;;;;;;19.80;56.50;;;;;;5018325;28;644;-73
2022/05/30 12:26:54;;;;;;;;;;;19.80;56.80;;;;;;5017999;28;1221;-72
2022/05/30 12:29:37;;;;;;;;;;;19.80;57.00;;;;;;5018890;28;923;-72
2022/05/30 12:32:17;;;;;;;;;;;19.80;57.20;;;;;;5018946;28;1906;-72
2022/05/30 12:35:02;;;;;;;;;;;19.80;57.40;;;;;;5019047;28;1290;-73
2022/05/30 12:37:45;;;;;;;;;;;19.80;57.50;;;;;;5019130;28;892;-73
2022/05/30 12:40:12;;;;;;;;;;;19.80;58.30;;;;;;5017161;28;2163;-74
2022/05/30 12:42:42;;;;;;;;;;;19.80;57.80;;;;;;5023699;28;1155;-71
2022/05/30 12:45:37;;;;;;;;;;;19.80;58.00;;;;;;5031608;28;1493;-72
2022/05/30 12:48:13;;;;;;;;;;;19.80;58.00;;;;;;5020823;28;1283;-73
2022/05/30 12:50:40;;;;;;;;;;;19.70;58.00;;;;;;5016327;28;1350;-73
2022/05/30 12:53:05;;;;;;;;;;;19.80;58.20;;;;;;5026095;28;1959;-73
2022/05/30 12:55:32;;;;;;;;;;;19.80;58.30;;;;;;5035603;28;1280;-73
2022/05/30 12:57:58;;;;;;;;;;;19.80;58.40;;;;;;5050977;28;1303;-73
2022/05/30 13:00:43;;;;;;;;;;;19.80;58.50;;;;;;5035080;28;912;-73
2022/05/30 13:03:12;;;;;;;;;;;19.80;58.60;;;;;;5032991;28;2225;-72
2022/05/30 13:05:40;;;;;;;;;;;19.70;58.70;;;;;;5015371;28;1992;-73
2022/05/30 13:08:24;;;;;;;;;;;19.80;58.80;;;;;;5017044;28;1466;-73
2022/05/30 13:10:50;;;;;;;;;;;19.70;58.90;;;;;;5014013;28;1505;-73
2022/05/30 13:13:16;;;;;;;;;;;19.80;59.00;;;;;;5016387;28;1902;-72
2022/05/30 13:15:50;;;;;;;;;;;19.70;59.10;;;;;;5017811;28;1413;-73
2022/05/30 13:18:17;;;;;;;;;;;19.80;59.20;;;;;;5021182;28;1607;-72
2022/05/30 13:20:44;;;;;;;;;;;19.70;59.20;;;;;;5022289;28;1171;-73
2022/05/30 13:23:10;;;;;;;;;;;19.70;59.30;;;;;;5029702;28;1063;-72
2022/05/30 13:25:39;;;;;;;;;;;19.80;59.50;;;;;;5033707;28;1303;-73
2022/05/30 13:28:06;;;;;;;;;;;19.70;59.50;;;;;;4978342;28;1230;-73
2022/05/30 13:30:31;;;;;;;;;;;19.70;59.60;;;;;;4994238;28;979;-73
2022/05/30 13:32:56;;;;;;;;;;;19.70;59.70;;;;;;4994573;28;1953;-74
2022/05/30 13:35:29;;;;;;;;;;;19.70;59.80;;;;;;5010944;28;1245;-73
2022/05/30 13:37:56;;;;;;;;;;;19.70;59.80;;;;;;4994320;28;1081;-73
2022/05/30 13:40:23;;;;;;;;;;;19.70;59.90;;;;;;5011863;28;2153;-73
2022/05/30 13:42:49;;;;;;;;;;;19.70;60.00;;;;;;5026660;28;1459;-73
2022/05/30 13:45:19;;;;;;;;;;;19.80;60.20;;;;;;5031174;28;1669;-73
2022/05/30 13:47:44;;;;;;;;;;;19.70;60.20;;;;;;5033596;28;1511;-73
2022/05/30 13:50:10;;;;;;;;;;;19.70;60.30;;;;;;5034561;28;959;-72
2022/05/30 13:52:38;;;;;;;;;;;19.70;60.40;;;;;;5033268;28;1966;-72
2022/05/30 13:55:05;;;;;;;;;;;19.70;60.40;;;;;;5033284;28;1197;-73
2022/05/30 13:57:30;;;;;;;;;;;19.70;60.50;;;;;;5033358;28;1050;-73
2022/05/30 13:59:57;;;;;;;;;;;19.70;60.60;;;;;;5033063;28;975;-73
2022/05/30 14:02:22;;;;;;;;;;;19.70;60.70;;;;;;5032881;28;868;-73
2022/05/30 14:04:49;;;;;;;;;;;19.70;60.80;;;;;;5034238;28;1603;-72
2022/05/30 14:07:19;;;;;;;;;;;19.70;60.80;;;;;;5052468;23;3643;-78
2022/05/30 14:09:45;;;;;;;;;;;19.70;60.90;;;;;;5049229;28;1322;-78
2022/05/30 14:12:11;;;;;;;;;;;19.70;61.00;;;;;;5057186;28;2001;-80
2022/05/30 14:14:37;;;;;;;;;;;19.70;61.00;;;;;;5073531;28;1110;-78
2022/05/30 14:17:04;;;;;;;;;;;19.70;61.10;;;;;;5057343;28;1297;-79
2022/05/30 14:19:31;;;;;;;;;;;19.70;61.10;;;;;;5061478;28;1180;-79
2022/05/30 14:22:00;;;;;;;;;;;19.70;61.20;;;;;;5090114;28;1210;-80
2022/05/30 14:24:28;;;;;;;;;;;19.70;61.30;;;;;;5090196;28;1255;-78
2022/05/30 14:26:54;;;;;;;;;;;19.70;62.10;;;;;;5067091;28;1195;-79
2022/05/30 14:29:26;;;;;;;;;;;19.70;61.40;;;;;;5094281;28;1113;-80
2022/05/30 14:32:06;;;;;;;;;;;19.70;61.50;;;;;;5112086;27;1898;-79
2022/05/30 14:34:33;;;;;;;;;;;19.70;61.50;;;;;;5111031;28;1337;-77
2022/05/30 14:36:58;;;;;;;;;;;19.70;61.60;;;;;;5109477;28;1234;-78
2022/05/30 14:39:24;;;;;;;;;;;19.60;61.50;;;;;;5111517;28;885;-78
2022/05/30 14:41:55;;;;;;;;;;;19.70;61.70;;;;;;5094309;28;1280;-77
2022/05/30 14:44:21;;;;;;;;;;;19.70;61.70;;;;;;5093869;28;1199;-77
2022/05/30 14:46:46;;;;;;;;;;;19.70;61.80;;;;;;5076866;28;1168;-77
2022/05/30 14:49:16;;;;;;;;;;;19.70;61.90;;;;;;5094953;28;743;-78
2022/05/30 14:51:48;;;;;;;;;;;19.70;62.00;;;;;;5093609;28;1963;-78
2022/05/30 14:54:14;;;;;;;;;;;19.70;62.00;;;;;;5095068;28;1040;-78
2022/05/30 14:56:43;;;;;;;;;;;19.70;62.00;;;;;;5112407;28;1363;-78
2022/05/30 14:59:12;;;;;;;;;;;19.60;62.00;;;;;;5094341;28;1273;-77
2022/05/30 15:01:39;;;;;;;;;;;19.60;62.10;;;;;;5076512;28;1421;-78
2022/05/30 15:04:05;;;;;;;;;;;19.60;62.10;;;;;;5094853;28;1202;-78
2022/05/30 15:06:36;;;;;;;;;;;19.70;62.20;;;;;;5094541;28;1210;-77